createdAt,value
2023-03-27T00:01:01.608Z,29.45
2023-03-27T00:03:28.728Z,29.67
2023-03-27T00:05:55.132Z,30.70
2023-03-27T00:08:21.446Z,27.92
2023-03-27T00:10:47.879Z,27.60
2023-03-27T00:13:14.297Z,29.15
2023-03-27T00:15:40.729Z,27.45
2023-03-27T00:18:07.510Z,26.52
2023-03-27T00:20:34.631Z,25.65
2023-03-27T00:23:01.853Z,28.35
2023-03-27T00:25:28.587Z,25.75
2023-03-27T00:27:54.866Z,24.67
2023-03-27T00:30:21.233Z,25.60
2023-03-27T00:32:47.737Z,26.48
2023-03-27T00:35:14.159Z,24.60
2023-03-27T00:37:40.529Z,23.88
2023-03-27T00:40:06.950Z,26.15
2023-03-27T00:42:33.331Z,21.92
2023-03-27T00:44:59.729Z,22.77
2023-03-27T00:47:26.280Z,20.95
2023-03-27T00:49:52.805Z,23.80
2023-03-27T00:52:19.068Z,21.35
2023-03-27T00:54:45.752Z,19.88
2023-03-27T00:57:12.806Z,20.38
2023-03-27T00:59:39.494Z,21.00
2023-03-27T01:02:05.848Z,22.35
2023-03-27T01:04:32.637Z,20.63
2023-03-27T01:07:02.902Z,18.90
2023-03-27T01:09:30.058Z,21.88
2023-03-27T01:11:56.318Z,17.70
2023-03-27T01:14:23.158Z,19.10
2023-03-27T01:16:49.833Z,19.13
2023-03-27T01:19:17.306Z,19.17
2023-03-27T01:21:43.972Z,18.67
2023-03-27T01:24:10.474Z,19.00
2023-03-27T01:26:37.317Z,17.63
2023-03-27T01:29:03.761Z,16.45
2023-03-27T01:31:30.156Z,17.25
2023-03-27T01:33:56.705Z,16.33
2023-03-27T01:36:23.020Z,17.65
2023-03-27T01:38:49.420Z,15.25
2023-03-27T01:41:16.241Z,14.40
2023-03-27T01:43:42.921Z,16.05
2023-03-27T01:46:09.368Z,15.90
2023-03-27T01:48:35.702Z,15.23
2023-03-27T01:51:02.096Z,14.82
2023-03-27T01:53:28.591Z,15.05
2023-03-27T01:55:54.926Z,15.65
2023-03-27T01:58:21.236Z,11.80
2023-03-27T02:01:04.081Z,13.13
2023-03-27T02:03:30.522Z,12.63
2023-03-27T02:05:56.885Z,13.52
2023-03-27T02:08:23.886Z,13.00
2023-03-27T02:10:50.277Z,12.93
2023-03-27T02:13:16.588Z,11.52
2023-03-27T02:15:43.084Z,11.52
2023-03-27T02:18:09.818Z,14.80
2023-03-27T02:20:36.812Z,12.43
2023-03-27T02:23:03.416Z,9.80
2023-03-27T02:25:29.975Z,12.00
2023-03-27T02:27:57.076Z,12.43
2023-03-27T02:30:23.402Z,10.95
2023-03-27T02:32:50.186Z,11.23
2023-03-27T02:35:16.804Z,9.75
2023-03-27T02:37:43.211Z,10.15
2023-03-27T02:40:09.635Z,9.60
2023-03-27T02:42:36.119Z,8.98
2023-03-27T02:45:02.536Z,9.90
2023-03-27T02:47:29.087Z,10.98
2023-03-27T02:49:55.418Z,9.27
2023-03-27T02:52:21.877Z,8.38
2023-03-27T02:54:48.267Z,8.50
2023-03-27T02:57:14.778Z,8.73
2023-03-27T02:59:41.329Z,7.88
2023-03-27T03:02:07.859Z,9.93
2023-03-27T03:04:34.509Z,7.82
2023-03-27T03:07:00.844Z,8.70
2023-03-27T03:09:27.154Z,7.90
2023-03-27T03:11:53.867Z,8.18
2023-03-27T03:14:20.697Z,7.57
2023-03-27T03:16:47.604Z,7.45
2023-03-27T03:19:14.104Z,6.55
2023-03-27T03:21:40.438Z,7.88
2023-03-27T03:24:06.805Z,7.75
2023-03-27T03:26:33.131Z,7.82
2023-03-27T03:29:00.627Z,6.45
2023-03-27T03:31:28.537Z,7.43
2023-03-27T03:33:55.758Z,6.75
2023-03-27T03:36:22.077Z,7.75
2023-03-27T03:38:48.444Z,6.88
2023-03-27T03:41:15.464Z,7.57
2023-03-27T03:43:42.022Z,8.00
2023-03-27T03:46:08.803Z,5.85
2023-03-27T03:48:35.336Z,7.47
2023-03-27T03:51:02.411Z,6.18
2023-03-27T03:53:29.291Z,6.28
2023-03-27T03:55:55.716Z,5.43
2023-03-27T03:58:22.162Z,5.90
2023-03-27T04:01:01.459Z,6.35
2023-03-27T04:03:28.083Z,6.95
2023-03-27T04:05:55.006Z,6.10
2023-03-27T04:08:21.336Z,6.53
2023-03-27T04:10:47.716Z,5.68
2023-03-27T04:13:14.460Z,5.30
2023-03-27T04:15:40.809Z,5.75
2023-03-27T04:18:07.511Z,5.65
2023-03-27T04:20:33.999Z,4.82
2023-03-27T04:23:00.297Z,5.00
2023-03-27T04:25:27.016Z,4.70
2023-03-27T04:27:53.632Z,5.60
2023-03-27T04:30:20.684Z,5.20
2023-03-27T04:32:47.839Z,4.57
2023-03-27T04:35:14.288Z,4.85
2023-03-27T04:37:41.046Z,4.75
2023-03-27T04:40:07.380Z,4.28
2023-03-27T04:42:34.073Z,4.18
2023-03-27T04:45:00.992Z,5.68
2023-03-27T04:47:27.767Z,5.40
2023-03-27T04:49:54.147Z,4.85
2023-03-27T04:52:20.508Z,5.60
2023-03-27T04:54:47.197Z,5.40
2023-03-27T04:57:13.983Z,5.68
2023-03-27T04:59:40.519Z,5.85
2023-03-27T05:02:07.272Z,4.85
2023-03-27T05:04:33.713Z,5.10
2023-03-27T05:07:00.141Z,5.32
2023-03-27T05:09:27.138Z,3.90
2023-03-27T05:11:53.770Z,4.20
2023-03-27T05:14:20.421Z,5.00
2023-03-27T05:16:46.908Z,4.75
2023-03-27T05:19:13.995Z,4.07
2023-03-27T05:21:40.413Z,4.13
2023-03-27T05:24:07.648Z,4.47
2023-03-27T05:26:34.074Z,4.15
2023-03-27T05:29:00.765Z,4.60
2023-03-27T05:31:27.632Z,3.60
2023-03-27T05:33:54.175Z,5.97
2023-03-27T05:36:20.565Z,6.53
2023-03-27T05:38:47.468Z,7.40
2023-03-27T05:41:13.846Z,11.00
2023-03-27T05:43:40.195Z,4.72
2023-03-27T05:46:07.275Z,6.55
2023-03-27T05:48:33.653Z,9.25
2023-03-27T05:51:00.087Z,7.03
2023-03-27T05:53:27.972Z,4.97
2023-03-27T05:56:02.937Z,5.53
2023-03-27T05:58:30.124Z,9.57
2023-03-27T06:00:56.820Z,9.95
2023-03-27T06:03:23.420Z,9.93
2023-03-27T06:05:49.857Z,10.63
2023-03-27T06:08:16.274Z,14.43
2023-03-27T06:10:42.978Z,19.77
2023-03-27T06:13:09.563Z,18.30
2023-03-27T06:15:36.014Z,15.38
2023-03-27T06:18:02.394Z,20.45
2023-03-27T06:20:28.976Z,15.75
2023-03-27T06:22:55.442Z,22.35
2023-03-27T06:25:21.845Z,15.57
2023-03-27T06:27:48.856Z,18.77
2023-03-27T06:30:15.239Z,18.83
2023-03-27T06:32:41.704Z,21.65
2023-03-27T06:35:08.103Z,19.70
2023-03-27T06:37:34.569Z,19.83
2023-03-27T06:40:01.040Z,19.15
2023-03-27T06:42:27.457Z,19.83
2023-03-27T06:44:53.827Z,21.27
2023-03-27T06:47:20.279Z,17.80
2023-03-27T06:49:47.045Z,19.65
2023-03-27T06:52:13.406Z,20.75
2023-03-27T06:54:40.489Z,18.15
2023-03-27T06:57:07.217Z,21.05
2023-03-27T06:59:33.555Z,20.17
2023-03-27T07:02:00.319Z,23.83
2023-03-27T07:04:27.079Z,24.40
2023-03-27T07:06:53.405Z,23.13
2023-03-27T07:09:19.886Z,18.13
2023-03-27T07:11:46.233Z,24.73
2023-03-27T07:14:13.015Z,20.95
2023-03-27T07:16:39.748Z,24.65
2023-03-27T07:19:06.648Z,21.75
2023-03-27T07:21:32.972Z,23.85
2023-03-27T07:23:59.653Z,22.23
2023-03-27T07:26:27.203Z,27.30
2023-03-27T07:28:53.729Z,21.52
2023-03-27T07:31:33.008Z,20.13
2023-03-27T07:34:06.632Z,21.58
2023-03-27T07:36:33.200Z,22.38
2023-03-27T07:38:59.829Z,24.65
2023-03-27T07:41:26.376Z,22.40
2023-03-27T07:43:52.803Z,20.60
2023-03-27T07:46:19.159Z,22.55
2023-03-27T07:48:45.618Z,21.92
2023-03-27T07:51:14.249Z,20.88
2023-03-27T07:53:40.766Z,20.58
2023-03-27T07:56:07.692Z,23.27
2023-03-27T07:58:34.292Z,24.75
2023-03-27T08:01:00.614Z,19.25
2023-03-27T08:03:27.331Z,20.17
2023-03-27T08:05:54.267Z,17.95
2023-03-27T08:08:20.849Z,20.50
2023-03-27T08:10:47.713Z,19.50
2023-03-27T08:13:14.064Z,17.52
2023-03-27T08:15:40.453Z,17.25
2023-03-27T08:18:07.249Z,19.90
2023-03-27T08:20:33.706Z,22.30
2023-03-27T08:23:00.114Z,19.60
2023-03-27T08:25:26.717Z,18.42
2023-03-27T08:27:53.117Z,18.75
2023-03-27T08:30:19.470Z,18.45
2023-03-27T08:32:45.798Z,21.33
2023-03-27T08:35:12.464Z,21.42
2023-03-27T08:37:39.054Z,21.27
2023-03-27T08:40:05.397Z,18.67
2023-03-27T08:42:31.786Z,17.95
2023-03-27T08:44:58.126Z,19.45
2023-03-27T08:47:24.721Z,18.95
2023-03-27T08:49:51.486Z,21.50
2023-03-27T08:52:18.008Z,18.90
2023-03-27T08:54:44.336Z,18.48
2023-03-27T08:57:10.939Z,32.47
2023-03-27T08:59:37.439Z,20.80
2023-03-27T09:02:03.891Z,24.08
2023-03-27T09:04:30.383Z,34.40
2023-03-27T09:06:56.889Z,28.55
2023-03-27T09:09:23.233Z,26.63
2023-03-27T09:11:49.817Z,29.08
2023-03-27T09:14:16.171Z,31.40
2023-03-27T09:16:42.565Z,31.13
2023-03-27T09:19:09.569Z,31.45
2023-03-27T09:21:36.029Z,30.92
2023-03-27T09:24:02.406Z,30.65
2023-03-27T09:26:28.920Z,33.88
2023-03-27T09:28:55.218Z,34.28
2023-03-27T09:31:21.817Z,42.50
2023-03-27T09:33:48.265Z,38.97
2023-03-27T09:36:14.824Z,44.95
2023-03-27T09:38:41.366Z,37.35
2023-03-27T09:41:07.998Z,41.38
2023-03-27T09:43:34.506Z,47.83
2023-03-27T09:46:00.938Z,48.28
2023-03-27T09:48:27.297Z,43.80
2023-03-27T09:50:54.030Z,39.83
2023-03-27T09:53:20.469Z,44.38
2023-03-27T09:55:46.771Z,43.58
2023-03-27T09:58:13.376Z,40.97
2023-03-27T10:00:39.753Z,42.78
2023-03-27T10:03:06.452Z,44.20
2023-03-27T10:05:33.040Z,44.00
2023-03-27T10:07:59.327Z,43.70
2023-03-27T10:10:25.674Z,41.25
2023-03-27T10:15:42.891Z,48.70
2023-03-27T10:18:09.310Z,44.65
2023-03-27T10:20:35.782Z,42.50
2023-03-27T10:23:02.296Z,43.38
2023-03-27T10:25:28.706Z,41.30
2023-03-27T10:27:55.114Z,42.20
2023-03-27T10:30:21.640Z,43.10
2023-03-27T10:32:48.212Z,46.10
2023-03-27T10:35:14.961Z,42.65
2023-03-27T10:37:41.361Z,50.20
2023-03-27T10:40:16.682Z,41.38
2023-03-27T10:42:43.311Z,47.25
2023-03-27T10:45:09.859Z,43.63
2023-03-27T10:47:36.822Z,43.15
2023-03-27T10:50:03.213Z,41.47
2023-03-27T10:52:29.544Z,40.45
2023-03-27T10:54:55.882Z,42.78
2023-03-27T10:57:22.308Z,42.95
2023-03-27T10:59:48.856Z,44.50
2023-03-27T11:02:15.329Z,42.92
2023-03-27T11:04:41.677Z,40.25
2023-03-27T11:07:08.023Z,39.40
2023-03-27T11:09:34.735Z,37.47
2023-03-27T11:12:01.228Z,40.25
2023-03-27T11:14:27.627Z,37.05
2023-03-27T11:16:54.322Z,37.10
2023-03-27T11:19:20.613Z,36.78
2023-03-27T11:21:46.913Z,35.35
2023-03-27T11:24:13.211Z,37.15
2023-03-27T11:26:39.551Z,36.53
2023-03-27T11:29:05.914Z,32.58
2023-03-27T11:31:32.457Z,36.30
2023-03-27T11:33:59.248Z,32.22
2023-03-27T11:36:25.576Z,32.22
2023-03-27T11:38:52.102Z,33.40
2023-03-27T11:41:18.441Z,32.03
2023-03-27T11:43:46.098Z,29.77
2023-03-27T11:46:12.677Z,31.55
2023-03-27T11:48:39.190Z,29.48
2023-03-27T11:51:05.540Z,27.85
2023-03-27T11:53:32.050Z,33.80
2023-03-27T11:55:58.681Z,27.27
2023-03-27T11:58:25.373Z,27.95
2023-03-27T12:00:51.931Z,26.20
2023-03-27T12:03:18.467Z,27.02
2023-03-27T12:05:45.209Z,24.77
2023-03-27T12:08:11.545Z,26.75
2023-03-27T12:10:37.894Z,25.20
2023-03-27T12:13:04.224Z,27.95
2023-03-27T12:15:31.046Z,21.55
2023-03-27T12:17:57.979Z,26.27
2023-03-27T12:20:24.733Z,21.95
2023-03-27T12:22:51.956Z,22.77
2023-03-27T12:25:18.643Z,26.95
2023-03-27T12:27:45.366Z,22.40
2023-03-27T12:30:11.805Z,20.08
2023-03-27T12:32:38.153Z,21.33
2023-03-27T12:35:04.848Z,23.20
2023-03-27T12:37:31.320Z,21.83
2023-03-27T12:39:57.689Z,20.13
2023-03-27T12:42:24.215Z,23.02
2023-03-27T12:44:50.591Z,23.13
2023-03-27T12:47:17.260Z,21.88
2023-03-27T12:49:47.758Z,19.80
2023-03-27T12:52:15.233Z,20.02
2023-03-27T12:54:41.684Z,20.00
2023-03-27T12:57:08.212Z,20.58
2023-03-27T12:59:35.006Z,20.73
2023-03-27T13:02:01.526Z,20.98
2023-03-27T13:04:27.961Z,19.65
2023-03-27T13:06:54.330Z,18.98
2023-03-27T13:09:20.639Z,18.40
2023-03-27T13:11:47.080Z,18.27
2023-03-27T13:14:13.820Z,18.67
2023-03-27T13:16:40.398Z,18.67
2023-03-27T13:19:07.132Z,19.35
2023-03-27T13:21:36.580Z,17.02
2023-03-27T13:24:03.220Z,17.45
2023-03-27T13:26:29.562Z,19.48
2023-03-27T13:28:55.959Z,16.65
2023-03-27T13:31:22.443Z,20.30
2023-03-27T13:33:48.841Z,15.90
2023-03-27T13:36:15.234Z,16.30
2023-03-27T13:38:41.718Z,17.00
2023-03-27T13:41:07.995Z,17.10
2023-03-27T13:43:34.360Z,16.58
2023-03-27T13:46:00.811Z,16.08
2023-03-27T13:48:27.279Z,14.25
2023-03-27T13:50:53.647Z,15.85
2023-03-27T13:53:22.448Z,15.77
2023-03-27T13:55:50.526Z,15.73
2023-03-27T13:58:16.922Z,14.82
2023-03-27T14:00:43.519Z,14.80
2023-03-27T14:03:09.901Z,13.95
2023-03-27T14:05:36.570Z,16.30
2023-03-27T14:08:03.409Z,16.77
2023-03-27T14:10:29.894Z,20.15
2023-03-27T14:12:56.193Z,17.58
2023-03-27T14:15:22.906Z,16.48
2023-03-27T14:17:49.251Z,17.10
2023-03-27T14:20:15.680Z,16.63
2023-03-27T14:22:42.070Z,17.40
2023-03-27T14:25:08.463Z,19.88
2023-03-27T14:27:34.881Z,17.80
2023-03-27T14:30:01.413Z,18.83
2023-03-27T14:32:28.155Z,18.52
2023-03-27T14:34:54.939Z,18.63
2023-03-27T14:37:21.437Z,19.10
2023-03-27T14:39:47.804Z,19.73
2023-03-27T14:42:14.499Z,25.60
2023-03-27T14:44:41.298Z,25.08
2023-03-27T14:47:07.872Z,24.35
2023-03-27T14:49:34.470Z,23.42
2023-03-27T14:52:00.989Z,23.55
2023-03-27T14:54:27.437Z,27.20
2023-03-27T14:56:53.878Z,26.38
2023-03-27T14:59:20.305Z,28.48
2023-03-27T15:01:46.796Z,28.05
2023-03-27T15:04:13.386Z,26.65
2023-03-27T15:06:39.936Z,25.20
2023-03-27T15:09:06.535Z,26.58
2023-03-27T15:11:33.102Z,25.23
2023-03-27T15:13:59.457Z,22.65
2023-03-27T15:16:25.814Z,24.88
2023-03-27T15:18:52.417Z,25.10
2023-03-27T15:21:19.109Z,23.77
2023-03-27T15:23:46.054Z,24.20
2023-03-27T15:26:12.387Z,27.13
2023-03-27T15:28:38.725Z,27.02
2023-03-27T15:31:05.656Z,23.42
2023-03-27T15:33:32.290Z,25.25
2023-03-27T15:35:59.286Z,24.35
2023-03-27T15:38:25.805Z,22.38
2023-03-27T15:40:52.316Z,22.83
2023-03-27T15:43:18.650Z,24.23
2023-03-27T15:45:45.623Z,23.40
2023-03-27T15:48:12.042Z,25.42
2023-03-27T15:50:38.777Z,23.70
2023-03-27T15:53:05.577Z,21.70
2023-03-27T15:55:32.179Z,21.25
2023-03-27T15:57:58.581Z,23.20
2023-03-27T16:00:26.395Z,23.05
2023-03-27T16:02:54.795Z,19.25
2023-03-27T16:05:21.233Z,24.25
2023-03-27T16:07:47.599Z,20.25
2023-03-27T16:10:14.046Z,20.02
2023-03-27T16:12:40.410Z,23.02
2023-03-27T16:15:08.465Z,19.77
2023-03-27T16:17:35.081Z,19.55
2023-03-27T16:20:01.437Z,20.45
2023-03-27T16:22:28.083Z,18.52
2023-03-27T16:24:54.915Z,21.48
2023-03-27T16:27:21.389Z,17.48
2023-03-27T16:29:47.892Z,17.63
2023-03-27T16:32:14.323Z,19.63
2023-03-27T16:34:40.680Z,19.90
2023-03-27T16:37:07.338Z,19.10
2023-03-27T16:39:33.694Z,17.45
2023-03-27T16:41:59.998Z,15.07
2023-03-27T16:44:26.545Z,17.35
2023-03-27T16:46:53.276Z,16.30
2023-03-27T16:49:19.929Z,16.67
2023-03-27T16:51:46.287Z,13.88
2023-03-27T16:54:12.999Z,14.48
2023-03-27T16:56:39.375Z,13.45
2023-03-27T16:59:05.834Z,14.70
2023-03-27T17:01:32.400Z,15.50
2023-03-27T17:03:59.115Z,14.63
2023-03-27T17:06:25.436Z,17.80
2023-03-27T17:08:51.817Z,14.30
2023-03-27T17:11:18.462Z,13.68
2023-03-27T17:13:44.845Z,12.23
2023-03-27T17:16:11.504Z,12.75
2023-03-27T17:18:37.996Z,13.40
2023-03-27T17:21:04.604Z,14.25
2023-03-27T17:23:30.974Z,14.27
2023-03-27T17:25:57.577Z,12.23
2023-03-27T17:28:24.071Z,13.70
2023-03-27T17:31:03.373Z,13.73
2023-03-27T17:33:31.785Z,12.18
2023-03-27T17:35:58.515Z,12.95
2023-03-27T17:38:25.379Z,12.98
2023-03-27T17:40:51.995Z,13.75
2023-03-27T17:43:18.370Z,10.48
2023-03-27T17:45:44.748Z,12.13
2023-03-27T17:48:11.749Z,11.30
2023-03-27T17:50:38.387Z,13.50
2023-03-27T17:53:04.725Z,11.15
2023-03-27T17:55:31.116Z,11.85
2023-03-27T17:58:08.371Z,11.75
2023-03-27T18:00:36.034Z,9.30
2023-03-27T18:03:02.474Z,10.63
2023-03-27T18:05:29.069Z,11.88
2023-03-27T18:07:55.404Z,10.98
2023-03-27T18:10:21.769Z,10.82
2023-03-27T18:12:48.135Z,11.40
2023-03-27T18:15:14.469Z,8.93
2023-03-27T18:17:40.904Z,9.68
2023-03-27T18:20:07.401Z,9.27
2023-03-27T18:22:33.859Z,9.15
2023-03-27T18:25:00.321Z,9.65
2023-03-27T18:27:27.138Z,9.38
2023-03-27T18:29:53.710Z,9.27
2023-03-27T18:32:20.139Z,9.82
2023-03-27T18:34:46.478Z,9.48
2023-03-27T18:37:12.906Z,8.30
2023-03-27T18:39:39.462Z,9.90
2023-03-27T18:42:05.850Z,7.97
2023-03-27T18:44:32.237Z,9.85
2023-03-27T18:46:58.622Z,7.65
2023-03-27T18:49:25.685Z,9.00
2023-03-27T18:51:52.372Z,8.23
2023-03-27T18:54:18.955Z,8.32
2023-03-27T18:56:45.331Z,9.00
2023-03-27T18:59:11.925Z,10.18
2023-03-27T19:01:38.344Z,7.90
2023-03-27T19:04:04.972Z,8.15
2023-03-27T19:06:31.488Z,8.18
2023-03-27T19:08:57.886Z,7.95
2023-03-27T19:11:24.385Z,8.95
2023-03-27T19:13:50.922Z,7.55
2023-03-27T19:16:17.819Z,8.15
2023-03-27T19:18:44.161Z,7.65
2023-03-27T19:21:10.573Z,6.68
2023-03-27T19:23:37.011Z,157.57
2023-03-27T19:26:03.723Z,181.65
2023-03-27T19:28:30.126Z,206.90
2023-03-27T19:30:57.208Z,169.32
2023-03-27T19:33:24.010Z,157.63
2023-03-27T19:35:50.663Z,153.13
2023-03-27T19:38:17.101Z,140.02
2023-03-27T19:40:43.576Z,124.68
2023-03-27T19:43:10.042Z,113.72
2023-03-27T19:45:36.671Z,117.60
2023-03-27T19:48:03.214Z,106.47
2023-03-27T19:50:29.815Z,104.20
2023-03-27T19:53:07.373Z,96.25
2023-03-27T19:55:35.054Z,89.55
2023-03-27T19:58:01.627Z,110.22
2023-03-27T20:00:30.170Z,121.65
2023-03-27T20:02:57.937Z,119.53
2023-03-27T20:05:24.379Z,117.65
2023-03-27T20:07:51.051Z,110.60
2023-03-27T20:10:17.392Z,106.55
2023-03-27T20:12:43.686Z,106.88
2023-03-27T20:15:12.269Z,104.57
2023-03-27T20:17:39.228Z,107.53
2023-03-27T20:20:05.578Z,487.23
2023-03-27T20:22:32.965Z,223.00
2023-03-27T20:25:01.362Z,353.40
2023-03-27T20:27:28.096Z,333.67
2023-03-27T20:29:54.861Z,318.92
2023-03-27T20:32:21.484Z,295.13
2023-03-27T20:34:48.272Z,276.33
2023-03-27T20:37:14.902Z,267.98
2023-03-27T20:39:41.338Z,252.30
2023-03-27T20:42:08.121Z,248.43
2023-03-27T20:44:34.530Z,239.95
2023-03-27T20:47:00.948Z,234.02
2023-03-27T20:49:40.026Z,658.55
2023-03-27T20:52:07.590Z,591.58
2023-03-27T20:54:33.923Z,492.25
2023-03-27T20:57:00.252Z,737.50
2023-03-27T20:59:26.954Z,595.58
2023-03-27T21:01:53.446Z,561.20
2023-03-27T21:04:19.990Z,544.33
2023-03-27T21:06:46.719Z,511.90
2023-03-27T21:09:13.166Z,487.85
2023-03-27T21:11:39.530Z,458.10
2023-03-27T21:14:06.266Z,445.70
2023-03-27T21:16:33.020Z,436.23
2023-03-27T21:18:59.394Z,423.52
2023-03-27T21:21:25.752Z,417.42
2023-03-27T21:23:52.104Z,409.15
2023-03-27T21:26:18.461Z,399.63
2023-03-27T21:28:44.767Z,391.83
2023-03-27T21:31:11.115Z,386.73
2023-03-27T21:33:37.853Z,382.15
2023-03-27T21:36:04.206Z,379.50
2023-03-27T21:38:30.694Z,367.00
2023-03-27T21:40:57.182Z,353.38
2023-03-27T21:43:24.050Z,344.92
2023-03-27T21:45:50.713Z,345.73
2023-03-27T21:48:17.172Z,341.40
2023-03-27T21:50:43.887Z,327.77
2023-03-27T21:53:10.146Z,326.45
2023-03-27T21:55:36.553Z,321.65
2023-03-27T21:58:02.970Z,313.20
2023-03-27T22:00:29.414Z,304.20
2023-03-27T22:02:56.661Z,295.67
2023-03-27T22:05:23.433Z,280.40
2023-03-27T22:07:49.776Z,282.67
2023-03-27T22:10:16.156Z,278.02
2023-03-27T22:12:43.018Z,269.25
2023-03-27T22:15:09.370Z,265.15
2023-03-27T22:17:35.756Z,262.60
2023-03-27T22:20:02.510Z,260.23
2023-03-27T22:22:28.817Z,256.70
2023-03-27T22:24:55.289Z,244.73
2023-03-27T22:27:21.674Z,243.68
2023-03-27T22:29:48.002Z,235.65
2023-03-27T22:32:14.664Z,237.15
2023-03-27T22:34:41.005Z,232.45
2023-03-27T22:37:07.903Z,223.30
2023-03-27T22:39:34.623Z,218.48
2023-03-27T22:42:01.640Z,218.63
2023-03-27T22:44:28.143Z,207.65
2023-03-27T22:46:54.822Z,201.82
2023-03-27T22:49:21.426Z,202.70
2023-03-27T22:51:47.802Z,192.68
2023-03-27T22:54:14.360Z,195.48
2023-03-27T22:56:41.243Z,187.73
2023-03-27T22:59:08.301Z,186.15
2023-03-27T23:01:34.735Z,183.07
2023-03-27T23:04:01.278Z,176.63
2023-03-27T23:06:27.696Z,170.30
2023-03-27T23:08:54.167Z,168.18
2023-03-27T23:11:20.610Z,167.55
2023-03-27T23:13:47.095Z,161.43
2023-03-27T23:16:13.602Z,158.18
2023-03-27T23:18:40.245Z,152.00
2023-03-27T23:21:06.628Z,156.40
2023-03-27T23:23:33.268Z,147.18
2023-03-27T23:25:59.930Z,149.40
2023-03-27T23:28:26.609Z,143.07
2023-03-27T23:30:52.994Z,139.40
2023-03-27T23:33:19.835Z,139.52
2023-03-27T23:35:46.166Z,133.80
2023-03-27T23:38:12.564Z,131.85
2023-03-27T23:40:38.938Z,124.90
2023-03-27T23:43:05.235Z,123.97
2023-03-27T23:45:32.156Z,122.82
2023-03-27T23:47:58.561Z,119.45
2023-03-27T23:50:25.060Z,119.60
2023-03-27T23:52:51.450Z,114.35
2023-03-27T23:55:18.299Z,110.43
2023-03-27T23:57:44.778Z,110.72
